Time;durP1;ratioP1;P1;durP2;ratioP2;P2;SDS_P1;SDS_P2;PMS_P1;PMS_P2;Temp;Humidity;BMP_temperature;BMP_pressure;BME280_temperature;BME280_humidity;BME280_pressure;Samples;Min_cycle;Max_cycle;Signal;HPM_P1;HPM_P2
2021/10/20 00:00:14;;;;;;;6.43;5.80;;;12.30;99.90;;;;;;5061822;28;20049;-84
2021/10/20 00:02:41;;;;;;;5.40;4.80;;;12.10;99.90;;;;;;5062615;28;20060;-86
2021/10/20 00:05:09;;;;;;;6.88;5.60;;;11.90;99.90;;;;;;5062675;28;20403;-86
2021/10/20 00:07:35;;;;;;;6.60;5.90;;;11.70;99.90;;;;;;5063307;28;20041;-86
2021/10/20 00:10:04;;;;;;;7.70;5.75;;;11.50;99.90;;;;;;5062319;28;20049;-86
2021/10/20 00:12:31;;;;;;;7.22;6.13;;;11.40;99.90;;;;;;5062167;28;20494;-86
2021/10/20 00:15:05;;;;;;;7.03;5.32;;;11.40;99.90;;;;;;5062977;28;20045;-87
2021/10/20 00:17:35;;;;;;;6.47;5.45;;;11.30;99.90;;;;;;5063270;28;20060;-85
2021/10/20 00:20:09;;;;;;;6.10;5.40;;;11.30;99.90;;;;;;5062500;28;20085;-86
2021/10/20 00:22:36;;;;;;;;;;;11.40;99.90;;;;;;5060746;28;20082;-85
2021/10/20 00:25:04;;;;;;;5.85;5.32;;;11.40;99.90;;;;;;5061014;28;19921;-86
2021/10/20 00:27:31;;;;;;;5.90;5.07;;;11.40;99.90;;;;;;5059605;28;20049;-86
2021/10/20 00:29:58;;;;;;;6.07;5.55;;;11.40;99.90;;;;;;5059511;28;20045;-85
2021/10/20 00:32:28;;;;;;;6.28;5.68;;;11.40;99.90;;;;;;5059070;28;20041;-86
2021/10/20 00:34:58;;;;;;;7.85;5.00;;;11.40;99.90;;;;;;5059793;28;20080;-86
2021/10/20 00:37:27;;;;;;;6.70;5.30;;;11.40;99.90;;;;;;5058739;28;20098;-88
2021/10/20 00:39:57;;;;;;;10.38;4.93;;;11.50;99.90;;;;;;5060468;28;20048;-85
2021/10/20 00:42:34;;;;;;;6.30;4.88;;;11.70;99.90;;;;;;5059038;28;20057;-86
2021/10/20 00:45:02;;;;;;;7.50;4.43;;;11.70;99.90;;;;;;5059538;28;20056;-84
2021/10/20 00:47:41;;;;;;;5.13;4.70;;;11.70;99.90;;;;;;5058226;28;20049;-85
2021/10/20 00:50:10;;;;;;;5.78;4.47;;;11.70;99.90;;;;;;5055779;28;20087;-85
2021/10/20 00:52:38;;;;;;;4.63;4.22;;;11.70;99.90;;;;;;5057899;28;20052;-86
2021/10/20 00:55:28;;;;;;;4.63;4.10;;;11.80;99.90;;;;;;5059976;28;20045;-88
2021/10/20 00:57:58;;;;;;;4.88;4.05;;;11.80;99.90;;;;;;5055135;28;20079;-86
2021/10/20 01:00:25;;;;;;;4.57;4.18;;;11.90;99.90;;;;;;5061814;28;20052;-85
2021/10/20 01:02:55;;;;;;;4.93;4.47;;;12.00;99.90;;;;;;5060800;28;20063;-86
2021/10/20 01:05:26;;;;;;;4.95;4.38;;;12.00;99.90;;;;;;5059650;28;20049;-86
2021/10/20 01:07:55;;;;;;;;;;;12.00;99.90;;;;;;5059539;28;20060;-86
2021/10/20 01:10:25;;;;;;;5.28;4.20;;;12.00;99.90;;;;;;5057932;28;19950;-85
2021/10/20 01:12:55;;;;;;;4.40;4.00;;;12.00;99.90;;;;;;5055953;28;20131;-87
2021/10/20 01:15:25;;;;;;;4.25;3.60;;;12.00;99.90;;;;;;5055815;28;20059;-85
2021/10/20 01:18:02;;;;;;;4.07;3.78;;;12.00;99.90;;;;;;5000218;28;20041;-87
2021/10/20 01:20:32;;;;;;;5.03;4.13;;;12.00;99.90;;;;;;5000017;28;20050;-84
2021/10/20 01:23:00;;;;;;;8.02;4.10;;;12.00;99.90;;;;;;5000839;28;20050;-83
2021/10/20 01:25:27;;;;;;;4.78;3.85;;;12.00;99.90;;;;;;5000083;28;20581;-84
2021/10/20 01:27:59;;;;;;;6.53;4.32;;;11.80;99.90;;;;;;5000418;28;20053;-84
2021/10/20 01:30:26;;;;;;;4.20;3.90;;;11.80;99.90;;;;;;5014791;28;20447;-86
2021/10/20 01:32:53;;;;;;;4.25;3.45;;;11.90;99.90;;;;;;4997704;28;20049;-86
2021/10/20 01:35:20;;;;;;;4.75;3.65;;;12.00;99.90;;;;;;5004361;28;20486;-86
2021/10/20 01:37:52;;;;;;;3.83;3.53;;;12.10;99.90;;;;;;5054678;28;20128;-87
2021/10/20 01:40:23;;;;;;;5.53;3.67;;;12.20;99.90;;;;;;5054929;28;20045;-86
2021/10/20 01:42:50;;;;;;;3.75;3.45;;;12.30;99.90;;;;;;5054799;28;20071;-86
2021/10/20 01:45:17;;;;;;;3.90;3.53;;;12.30;99.90;;;;;;5054832;28;20727;-85
2021/10/20 01:48:01;;;;;;;3.88;3.55;;;12.30;99.90;;;;;;5044324;28;20056;-87
2021/10/20 01:50:28;;;;;;;3.80;3.50;;;12.30;99.90;;;;;;5056031;28;20053;-88
2021/10/20 01:52:55;;;;;;;4.10;3.50;;;12.30;99.90;;;;;;5054641;28;20041;-87
2021/10/20 01:55:25;;;;;;;6.35;4.03;;;12.20;99.90;;;;;;5054343;28;20124;-86
2021/10/20 01:57:53;;;;;;;3.63;3.33;;;12.20;99.90;;;;;;5054738;28;20049;-87
2021/10/20 02:00:22;;;;;;;6.57;3.45;;;12.20;99.90;;;;;;5054922;28;20049;-86
2021/10/20 02:02:56;;;;;;;3.90;3.60;;;12.20;99.90;;;;;;5055046;28;20083;-88
2021/10/20 02:05:23;;;;;;;3.63;3.33;;;12.20;99.90;;;;;;5054621;28;20061;-87
2021/10/20 02:07:50;;;;;;;4.00;3.70;;;12.20;99.90;;;;;;5053940;28;20080;-87
2021/10/20 02:10:19;;;;;;;4.18;3.45;;;12.20;99.90;;;;;;5056265;28;20139;-89
2021/10/20 02:12:46;;;;;;;3.65;3.38;;;12.20;99.90;;;;;;5054727;28;20140;-87
2021/10/20 02:15:13;;;;;;;3.42;3.10;;;12.20;99.90;;;;;;5054618;28;20069;-85
2021/10/20 02:17:40;;;;;;;3.33;3.13;;;12.10;99.90;;;;;;5053771;28;20065;-87
2021/10/20 02:20:16;;;;;;;4.60;3.42;;;12.10;99.90;;;;;;5055155;28;20045;-87
2021/10/20 02:22:44;;;;;;;5.55;3.60;;;12.10;99.90;;;;;;5054064;28;20136;-87
2021/10/20 02:25:12;;;;;;;4.80;3.75;;;12.00;99.90;;;;;;5053652;28;20521;-85
2021/10/20 02:27:39;;;;;;;3.75;3.45;;;12.00;99.90;;;;;;5054003;28;20087;-84
2021/10/20 02:30:08;;;;;;;5.35;3.58;;;12.00;99.90;;;;;;5053910;28;20048;-85
2021/10/20 02:32:36;;;;;;;4.30;3.90;;;12.00;99.90;;;;;;5053392;28;20045;-87
2021/10/20 02:35:04;;;;;;;4.45;3.70;;;12.00;99.90;;;;;;5055194;28;20502;-85
2021/10/20 02:37:31;;;;;;;3.42;3.13;;;12.00;99.90;;;;;;5055701;28;20045;-83
2021/10/20 02:39:58;;;;;;;3.58;3.28;;;12.00;99.90;;;;;;5054581;28;20049;-87
2021/10/20 02:42:24;;;;;;;5.15;3.47;;;11.90;99.90;;;;;;5065588;28;20577;-86
2021/10/20 02:44:52;;;;;;;3.95;3.40;;;11.90;99.90;;;;;;5056157;28;20045;-85
2021/10/20 02:47:19;;;;;;;3.78;3.38;;;11.80;99.90;;;;;;5058469;28;20055;-87
2021/10/20 02:49:46;;;;;;;9.88;3.88;;;11.70;99.90;;;;;;5074772;28;20044;-87
2021/10/20 02:52:15;;;;;;;4.22;3.42;;;11.70;99.90;;;;;;5056831;28;20536;-87
2021/10/20 02:54:41;;;;;;;3.63;3.33;;;11.60;99.90;;;;;;5056964;28;20131;-87
2021/10/20 02:57:08;;;;;;;3.58;3.15;;;11.50;99.90;;;;;;5056381;28;20045;-86
2021/10/20 02:59:35;;;;;;;3.85;3.55;;;11.50;99.90;;;;;;5073947;28;20468;-86
2021/10/20 03:02:02;;;;;;;5.43;4.07;;;11.40;99.90;;;;;;5055726;28;20547;-87
2021/10/20 03:04:29;;;;;;;4.20;3.28;;;11.30;99.90;;;;;;5056156;28;20044;-87
2021/10/20 03:06:58;;;;;;;3.58;3.28;;;11.20;99.90;;;;;;5055740;28;20138;-86
2021/10/20 03:09:25;;;;;;;4.20;3.30;;;11.10;99.90;;;;;;5055794;28;20048;-87
2021/10/20 03:11:51;;;;;;;3.53;3.13;;;11.00;99.90;;;;;;5055995;28;20048;-87
2021/10/20 03:14:19;;;;;;;3.95;3.40;;;10.90;99.90;;;;;;5057106;28;20067;-87
2021/10/20 03:16:57;;;;;;;8.95;5.43;;;10.70;99.90;;;;;;5056057;28;20110;-87
2021/10/20 03:19:26;;;;;;;12.02;3.88;;;10.60;99.90;;;;;;5055884;28;20052;-86
2021/10/20 03:21:52;;;;;;;4.50;4.03;;;10.50;99.90;;;;;;5055485;28;20378;-86
2021/10/20 03:24:22;;;;;;;5.75;3.83;;;10.40;99.90;;;;;;5054607;28;20048;-86
2021/10/20 03:26:49;;;;;;;6.10;3.63;;;10.20;99.90;;;;;;5055901;28;20059;-86
2021/10/20 03:29:16;;;;;;;4.03;3.70;;;9.90;99.90;;;;;;5056779;28;20502;-86
2021/10/20 03:31:43;;;;;;;5.88;4.10;;;9.80;99.90;;;;;;5099642;22;1058891;-84
2021/10/20 03:34:10;;;;;;;18.83;4.78;;;9.70;99.90;;;;;;5057788;28;20455;-84
2021/10/20 03:36:37;;;;;;;6.85;4.30;;;9.50;99.90;;;;;;5059752;28;20080;-84
2021/10/20 03:39:04;;;;;;;5.07;4.38;;;9.50;99.90;;;;;;5060221;28;20044;-85
2021/10/20 03:41:31;;;;;;;4.78;3.90;;;9.20;99.90;;;;;;5061794;28;20044;-85
2021/10/20 03:43:59;;;;;;;6.35;3.35;;;9.20;99.90;;;;;;5061320;28;20060;-84
2021/10/20 03:46:39;;;;;;;7.40;4.03;;;9.10;99.90;;;;;;5062174;28;20078;-84
2021/10/20 03:49:06;;;;;;;8.65;4.47;;;9.00;99.90;;;;;;5061807;28;20051;-84
2021/10/20 03:51:35;;;;;;;7.70;4.32;;;9.00;99.90;;;;;;5061419;28;20608;-84
2021/10/20 03:54:02;;;;;;;4.72;4.07;;;8.90;99.90;;;;;;5062602;28;20048;-84
2021/10/20 03:56:29;;;;;;;7.63;4.07;;;8.90;99.90;;;;;;5060583;28;20044;-84
2021/10/20 03:58:56;;;;;;;10.07;4.65;;;8.90;99.90;;;;;;5081147;28;20485;-83
2021/10/20 04:01:27;;;;;;;13.95;4.72;;;8.80;99.90;;;;;;5061229;28;20049;-84
2021/10/20 04:04:03;;;;;;;5.35;4.68;;;8.80;99.90;;;;;;5060866;28;20056;-84
2021/10/20 04:06:30;;;;;;;6.57;4.50;;;8.70;99.90;;;;;;5061096;28;20048;-83
2021/10/20 04:08:57;;;;;;;5.97;4.30;;;8.70;99.90;;;;;;5062912;28;20052;-83
2021/10/20 04:11:26;;;;;;;3.90;3.58;;;8.90;99.90;;;;;;5063229;28;20052;-84
2021/10/20 04:13:52;;;;;;;3.75;3.35;;;9.40;99.90;;;;;;5063362;28;20114;-84
2021/10/20 04:16:19;;;;;;;6.30;3.50;;;9.80;99.90;;;;;;5079546;28;20127;-84
2021/10/20 04:18:46;;;;;;;5.32;2.80;;;10.20;99.90;;;;;;5061910;28;20045;-84
2021/10/20 04:21:13;;;;;;;2.70;2.60;;;10.60;99.90;;;;;;5063943;28;20405;-84
2021/10/20 04:23:40;;;;;;;4.70;2.67;;;10.90;99.90;;;;;;5063509;28;20083;-84
2021/10/20 04:26:08;;;;;;;4.43;2.50;;;11.20;99.90;;;;;;5063174;28;20052;-83
2021/10/20 04:28:35;;;;;;;10.02;3.30;;;11.40;99.90;;;;;;5062230;28;20127;-84
2021/10/20 04:31:02;;;;;;;4.20;3.80;;;11.60;99.90;;;;;;5062701;28;20083;-84
2021/10/20 04:33:29;;;;;;;2.78;2.58;;;11.80;99.90;;;;;;5062538;28;20057;-84
2021/10/20 04:35:58;;;;;;;7.45;2.47;;;12.00;99.90;;;;;;5066491;28;20048;-83
2021/10/20 04:38:25;;;;;;;3.17;2.90;;;12.20;99.90;;;;;;5067138;28;20048;-85
2021/10/20 04:40:55;;;;;;;3.10;2.88;;;12.20;99.90;;;;;;5067960;28;20425;-84
2021/10/20 04:43:22;;;;;;;3.13;2.58;;;12.20;99.90;;;;;;5065561;28;20056;-84
2021/10/20 04:45:59;;;;;;;2.42;2.33;;;12.20;99.90;;;;;;5068223;28;20132;-85
2021/10/20 04:48:26;;;;;;;3.60;2.40;;;12.30;99.90;;;;;;5074475;22;20132;-95
2021/10/20 04:50:53;;;;;;;2.78;2.58;;;12.40;99.90;;;;;;5100545;28;20063;-92
2021/10/20 04:53:20;;;;;;;2.95;2.65;;;12.40;99.90;;;;;;5089294;28;20068;-96
2021/10/20 04:55:47;;;;;;;3.70;2.35;;;12.30;99.90;;;;;;5066759;28;20056;-96
2021/10/20 04:58:14;;;;;;;3.60;2.30;;;12.40;99.90;;;;;;5071985;23;20509;-86
2021/10/20 05:00:41;;;;;;;7.68;2.60;;;12.50;99.90;;;;;;5081637;28;20056;-86
2021/10/20 05:03:10;;;;;;;2.85;2.30;;;12.50;99.90;;;;;;5057896;28;20500;-86
2021/10/20 05:05:37;;;;;;;3.67;2.60;;;12.60;99.90;;;;;;5080706;28;20048;-85
2021/10/20 05:08:04;;;;;;;3.08;2.20;;;12.50;99.90;;;;;;5061473;28;20072;-85
2021/10/20 05:10:30;;;;;;;3.30;3.10;;;12.50;99.90;;;;;;5062792;28;20080;-83
2021/10/20 05:12:57;;;;;;;2.60;2.40;;;12.50;99.90;;;;;;5061030;28;20044;-85
2021/10/20 05:15:28;;;;;;;2.90;2.55;;;12.30;99.90;;;;;;5062554;28;20474;-87
2021/10/20 05:17:56;;;;;;;3.38;2.45;;;12.40;99.90;;;;;;5065688;28;20469;-85
2021/10/20 05:20:23;;;;;;;3.00;2.35;;;12.40;99.90;;;;;;5062291;28;20451;-85
2021/10/20 05:22:50;;;;;;;2.60;2.38;;;12.40;99.90;;;;;;5047407;28;20060;-86
2021/10/20 05:25:21;;;;;;;2.88;2.67;;;12.40;99.90;;;;;;5044213;28;20075;-85
2021/10/20 05:27:51;;;;;;;3.53;2.33;;;12.40;99.90;;;;;;5042586;28;20049;-85
2021/10/20 05:31:00;;;;;;;4.03;2.58;;;12.40;99.90;;;;;;5043190;28;20048;-86
2021/10/20 05:33:36;;;;;;;11.43;3.33;;;12.40;99.90;;;;;;4982354;28;20122;-86
2021/10/20 05:36:04;;;;;;;3.40;2.50;;;12.40;99.90;;;;;;4980162;28;20133;-86
2021/10/20 05:38:39;;;;;;;2.63;2.42;;;12.40;99.90;;;;;;4978715;28;20062;-85
2021/10/20 05:41:07;;;;;;;2.70;2.50;;;12.40;99.90;;;;;;4979210;28;20052;-85
2021/10/20 05:43:45;;;;;;;3.60;2.58;;;12.30;99.90;;;;;;5021007;28;20563;-85
2021/10/20 05:46:12;;;;;;;3.03;2.60;;;12.30;99.90;;;;;;5039565;28;20116;-85
2021/10/20 05:48:43;;;;;;;3.22;2.78;;;12.40;99.90;;;;;;5042017;28;20075;-85
2021/10/20 05:51:10;;;;;;;8.85;3.15;;;12.30;99.90;;;;;;5041006;28;20421;-85
2021/10/20 05:53:36;;;;;;;2.72;2.42;;;12.30;99.90;;;;;;5041560;28;20457;-85
2021/10/20 05:56:05;;;;;;;5.20;2.65;;;12.20;99.90;;;;;;5061238;28;20048;-85
2021/10/20 05:58:32;;;;;;;3.92;2.50;;;12.10;99.90;;;;;;5056639;28;20057;-85
2021/10/20 06:01:10;;;;;;;7.85;2.92;;;12.10;99.90;;;;;;5056944;28;20090;-85
2021/10/20 06:03:50;;;;;;;5.00;3.05;;;12.00;99.90;;;;;;5058707;28;20135;-85
2021/10/20 06:06:20;;;;;;;3.60;2.05;;;12.00;99.90;;;;;;5058151;28;20497;-84
2021/10/20 06:09:04;;;;;;;3.10;2.55;;;11.90;99.90;;;;;;5054328;28;20136;-87
2021/10/20 06:11:32;;;;;;;9.63;3.03;;;11.90;99.90;;;;;;5054022;28;20053;-87
2021/10/20 06:14:07;;;;;;;4.18;2.10;;;11.80;99.90;;;;;;5055192;28;20053;-87
2021/10/20 06:16:41;;;;;;;2.20;2.10;;;11.80;99.90;;;;;;5062232;22;20509;-85
2021/10/20 06:19:29;;;;;;;2.60;2.10;;;11.90;99.90;;;;;;5038371;28;20053;-85
2021/10/20 06:21:58;;;;;;;5.32;2.10;;;12.00;99.90;;;;;;5038265;28;20064;-83
2021/10/20 06:24:30;;;;;;;2.67;2.47;;;12.00;99.90;;;;;;5036455;28;20064;-86
2021/10/20 06:26:56;;;;;;;3.60;2.47;;;12.20;99.90;;;;;;5039479;28;20053;-86
2021/10/20 06:29:26;;;;;;;3.35;1.90;;;12.40;99.90;;;;;;5037160;28;20046;-84
2021/10/20 06:31:54;;;;;;;2.03;1.92;;;12.50;99.90;;;;;;5046338;28;20099;-84
2021/10/20 06:34:21;;;;;;;2.33;2.13;;;12.60;99.90;;;;;;5061773;28;20452;-84
2021/10/20 06:36:47;;;;;;;5.57;2.05;;;12.60;99.90;;;;;;5057775;28;20071;-85
2021/10/20 06:39:20;;;;;;;4.00;2.10;;;12.70;99.90;;;;;;5057440;28;20127;-83
2021/10/20 06:41:51;;;;;;;2.42;2.22;;;12.90;99.90;;;;;;5060392;28;20049;-86
2021/10/20 06:44:21;;;;;;;4.05;2.20;;;12.90;99.90;;;;;;5058160;28;20080;-83
2021/10/20 06:46:48;;;;;;;1.77;1.67;;;12.90;99.90;;;;;;5058691;28;20049;-83
2021/10/20 06:49:16;;;;;;;1.90;1.75;;;13.10;99.90;;;;;;5057665;28;20524;-86
2021/10/20 06:51:46;;;;;;;2.75;1.65;;;13.30;99.90;;;;;;5057806;28;20045;-84
2021/10/20 06:54:19;;;;;;;2.30;2.03;;;13.50;99.90;;;;;;5058806;28;20087;-84
2021/10/20 06:56:52;;;;;;;2.10;1.90;;;13.50;99.90;;;;;;5055800;28;20084;-85
2021/10/20 06:59:19;;;;;;;2.58;1.95;;;13.60;99.90;;;;;;5058383;28;20127;-86
2021/10/20 07:01:46;;;;;;;3.40;1.90;;;13.80;99.90;;;;;;5058487;28;20049;-84
2021/10/20 07:04:13;;;;;;;4.85;2.15;;;13.90;99.90;;;;;;5057050;28;20053;-83
2021/10/20 07:06:40;;;;;;;10.95;2.40;;;14.00;99.90;;;;;;5056236;28;20151;-83
2021/10/20 07:09:07;;;;;;;2.25;1.70;;;14.10;99.90;;;;;;5057522;28;20451;-82
2021/10/20 07:11:34;;;;;;;2.92;1.90;;;14.00;99.90;;;;;;5058450;28;20497;-83
2021/10/20 07:14:02;;;;;;;3.25;2.55;;;14.00;99.90;;;;;;5057416;28;20132;-83
2021/10/20 07:16:34;;;;;;;9.13;3.00;;;14.00;99.90;;;;;;5057859;28;20421;-84
2021/10/20 07:19:06;;;;;;;10.30;2.90;;;14.00;99.90;;;;;;5056001;28;20528;-84
2021/10/20 07:21:36;;;;;;;4.38;2.08;;;14.00;99.90;;;;;;5056984;28;20139;-84
2021/10/20 07:24:03;;;;;;;2.10;1.92;;;13.90;99.90;;;;;;5055827;28;20136;-84
2021/10/20 07:26:38;;;;;;;4.00;2.38;;;14.00;99.90;;;;;;5054285;28;20139;-83
2021/10/20 07:29:07;;;;;;;2.40;1.90;;;14.20;99.90;;;;;;5055675;28;20049;-85
2021/10/20 07:31:36;;;;;;;3.55;2.08;;;14.20;99.90;;;;;;5056961;28;20087;-85
2021/10/20 07:34:03;;;;;;;3.55;1.83;;;14.30;99.90;;;;;;5055228;28;20041;-83
2021/10/20 07:36:31;;;;;;;2.17;1.88;;;14.40;99.90;;;;;;5056926;28;20051;-83
2021/10/20 07:38:58;;;;;;;2.20;1.80;;;14.50;99.90;;;;;;5055062;28;20127;-85
2021/10/20 07:41:25;;;;;;;4.93;1.55;;;14.50;99.90;;;;;;5054996;28;20143;-84
2021/10/20 07:43:51;;;;;;;2.50;1.58;;;14.70;99.90;;;;;;5057152;28;20053;-86
2021/10/20 07:46:18;;;;;;;3.35;1.80;;;15.00;99.90;;;;;;5055717;28;20091;-84
2021/10/20 07:48:45;;;;;;;3.85;1.58;;;15.50;99.90;;;;;;5055256;28;20494;-84
2021/10/20 07:51:12;;;;;;;2.00;1.90;;;16.10;99.90;;;;;;5055893;28;20060;-83
2021/10/20 07:53:39;;;;;;;1.70;1.60;;;16.70;99.90;;;;;;5057065;28;20176;-84
2021/10/20 07:56:06;;;;;;;2.67;1.77;;;17.20;99.90;;;;;;5058147;28;20068;-81
2021/10/20 07:58:35;;;;;;;2.70;2.50;;;17.70;99.90;;;;;;5054605;28;20463;-81
2021/10/20 08:01:02;;;;;;;13.13;2.95;;;18.00;99.90;;;;;;5055980;28;20054;-81
2021/10/20 08:03:29;;;;;;;3.55;1.80;;;18.50;99.90;;;;;;5055473;28;20135;-81
2021/10/20 08:05:56;;;;;;;1.98;1.85;;;19.40;95.50;;;;;;5057032;28;20109;-84
2021/10/20 08:08:24;;;;;;;4.22;1.63;;;20.50;92.90;;;;;;5057328;28;20045;-82
2021/10/20 08:10:51;;;;;;;4.63;1.60;;;21.00;91.60;;;;;;5060212;28;20049;-81
2021/10/20 08:13:26;;;;;;;1.65;1.52;;;21.50;88.50;;;;;;5059333;28;20080;-82
2021/10/20 08:15:53;;;;;;;4.30;1.42;;;21.50;87.30;;;;;;5060790;28;20055;-80
2021/10/20 08:18:24;;;;;;;1.63;1.52;;;21.70;84.90;;;;;;5060703;28;20497;-81
2021/10/20 08:20:51;;;;;;;4.30;2.05;;;22.10;82.90;;;;;;5061065;28;20045;-80
2021/10/20 08:23:18;;;;;;;1.90;1.55;;;22.80;80.00;;;;;;5059374;28;20045;-80
2021/10/20 08:25:46;;;;;;;4.22;1.45;;;23.30;77.80;;;;;;5059922;28;20128;-80
2021/10/20 08:28:13;;;;;;;4.38;1.73;;;23.90;74.40;;;;;;5060715;28;20143;-81
2021/10/20 08:30:42;;;;;;;1.73;1.50;;;23.80;72.80;;;;;;5061105;28;20052;-81
2021/10/20 08:33:09;;;;;;;1.70;1.50;;;23.80;72.40;;;;;;5061557;28;20048;-82
2021/10/20 08:35:37;;;;;;;2.58;1.70;;;23.70;71.70;;;;;;5060580;28;20123;-82
2021/10/20 08:38:05;;;;;;;7.88;3.28;;;23.10;72.30;;;;;;5060889;28;20524;-82
2021/10/20 08:40:35;;;;;;;3.72;1.92;;;23.90;72.90;;;;;;5059864;28;20056;-81
2021/10/20 08:43:02;;;;;;;4.28;3.15;;;23.90;70.70;;;;;;5061338;28;20577;-82
2021/10/20 08:45:30;;;;;;;2.05;1.85;;;24.50;71.00;;;;;;5060096;28;20151;-81
2021/10/20 08:47:58;;;;;;;1.67;1.42;;;24.40;68.70;;;;;;5061050;28;20135;-82
2021/10/20 08:50:31;;;;;;;4.60;1.58;;;24.30;68.80;;;;;;5060267;28;20057;-82
2021/10/20 08:52:59;;;;;;;1.98;1.60;;;24.00;69.30;;;;;;5060959;28;20873;-83
2021/10/20 08:55:26;;;;;;;3.13;1.65;;;24.40;69.50;;;;;;5061478;28;20076;-81
2021/10/20 08:57:55;;;;;;;2.85;1.60;;;24.80;68.40;;;;;;5060716;28;20080;-81
2021/10/20 09:00:24;;;;;;;2.58;1.60;;;24.00;67.90;;;;;;5060390;28;20482;-81
2021/10/20 09:02:51;;;;;;;1.65;1.55;;;24.20;69.00;;;;;;5061180;28;20433;-82
2021/10/20 09:05:27;;;;;;;2.03;1.88;;;23.50;68.40;;;;;;5061192;28;20048;-81
2021/10/20 09:07:55;;;;;;;1.63;1.52;;;22.80;71.90;;;;;;5061284;28;20064;-81
2021/10/20 09:10:33;;;;;;;4.28;1.60;;;23.10;72.10;;;;;;5059518;28;20079;-80
2021/10/20 09:13:01;;;;;;;2.20;1.77;;;22.70;70.60;;;;;;5060303;28;20447;-81
2021/10/20 09:15:33;;;;;;;1.90;1.80;;;22.50;72.00;;;;;;5058569;28;20072;-80
2021/10/20 09:18:06;;;;;;;4.00;1.58;;;22.50;72.60;;;;;;5056967;28;20056;-82
2021/10/20 09:20:59;;;;;;;5.95;1.75;;;22.60;72.30;;;;;;5057357;28;20132;-86
2021/10/20 09:23:30;;;;;;;4.43;1.60;;;23.00;72.90;;;;;;5058640;28;20104;-85
2021/10/20 09:25:58;;;;;;;4.72;1.80;;;24.40;70.50;;;;;;5057972;28;20131;-85
2021/10/20 09:28:31;;;;;;;2.05;1.85;;;25.20;67.90;;;;;;5058051;28;20049;-84
2021/10/20 09:31:01;;;;;;;3.13;1.80;;;23.80;68.50;;;;;;5058666;28;20057;-83
2021/10/20 09:33:30;;;;;;;9.57;2.15;;;23.30;71.80;;;;;;5057303;28;20148;-81
2021/10/20 09:36:04;;;;;;;7.45;1.90;;;23.20;71.10;;;;;;5056816;28;20513;-81
2021/10/20 09:38:33;;;;;;;5.20;1.80;;;23.00;72.80;;;;;;5056760;28;20075;-83
2021/10/20 09:41:06;;;;;;;2.05;1.85;;;23.00;73.00;;;;;;5056789;28;20073;-83
2021/10/20 09:43:41;;;;;;;2.10;1.63;;;22.60;73.60;;;;;;5056787;28;20045;-81
2021/10/20 09:46:08;;;;;;;3.08;1.42;;;23.00;72.50;;;;;;5057114;28;20079;-83
2021/10/20 09:48:40;;;;;;;3.90;1.65;;;23.00;72.10;;;;;;5056651;28;20041;-78
2021/10/20 09:51:11;;;;;;;1.70;1.50;;;23.20;71.90;;;;;;5056245;28;20494;-83
2021/10/20 09:53:44;;;;;;;2.35;1.77;;;23.30;71.20;;;;;;5052649;28;20068;-81
2021/10/20 09:56:30;;;;;;;2.50;2.00;;;23.20;70.90;;;;;;5057272;28;20076;-80
2021/10/20 09:58:58;;;;;;;2.35;2.10;;;23.70;71.70;;;;;;5051576;28;20452;-81
2021/10/20 10:01:27;;;;;;;4.18;1.77;;;24.10;70.30;;;;;;5056512;28;20072;-83
2021/10/20 10:04:02;;;;;;;2.60;1.80;;;24.50;69.20;;;;;;5050817;28;20049;-84
2021/10/20 10:06:29;;;;;;;2.97;1.98;;;24.50;69.00;;;;;;5056618;28;20127;-82
2021/10/20 10:09:13;;;;;;;1.67;1.57;;;24.40;69.00;;;;;;5056396;28;20220;-82
2021/10/20 10:11:48;;;;;;;2.42;2.00;;;24.60;68.90;;;;;;5056209;28;20045;-81
2021/10/20 10:14:17;;;;;;;3.75;1.60;;;24.10;70.50;;;;;;5055703;28;20053;-83
2021/10/20 10:16:46;;;;;;;1.83;1.73;;;24.60;68.80;;;;;;5055786;28;20128;-83
2021/10/20 10:19:13;;;;;;;2.17;2.05;;;25.00;68.30;;;;;;5056340;28;20557;-81
2021/10/20 10:21:42;;;;;;;5.22;1.80;;;24.80;69.90;;;;;;5055767;28;20470;-80
2021/10/20 10:24:15;;;;;;;3.00;1.73;;;24.60;68.90;;;;;;5056183;28;20473;-81
2021/10/20 10:27:04;;;;;;;2.20;2.00;;;24.50;71.00;;;;;;5055415;28;20048;-82
2021/10/20 10:29:34;;;;;;;2.20;2.00;;;23.70;71.10;;;;;;5054260;28;20073;-83
2021/10/20 10:32:08;;;;;;;1.98;1.88;;;23.60;72.90;;;;;;5054204;28;20084;-82
2021/10/20 10:34:37;;;;;;;8.23;2.50;;;24.90;72.30;;;;;;5057518;28;20104;-84
2021/10/20 10:37:05;;;;;;;1.98;1.77;;;25.80;69.60;;;;;;5056189;28;20063;-83
2021/10/20 10:39:33;;;;;;;2.45;1.83;;;26.10;68.10;;;;;;5057099;28;20056;-82
2021/10/20 10:42:02;;;;;;;2.30;1.77;;;26.20;67.80;;;;;;5058732;28;20048;-83
2021/10/20 10:44:31;;;;;;;1.77;1.67;;;26.20;67.00;;;;;;5056766;28;20049;-83
2021/10/20 10:49:53;;;;;;;2.15;1.60;;;25.60;67.40;;;;;;5555939;22;20102;-95
2021/10/20 10:52:20;;;;;;;3.42;1.70;;;25.40;67.40;;;;;;5042954;28;20073;-92
2021/10/20 10:55:17;;;;;;;5.63;2.25;;;25.50;68.50;;;;;;5045601;28;20605;-94
2021/10/20 10:58:00;;;;;;;3.00;2.25;;;26.00;67.00;;;;;;5044150;28;20161;-95
2021/10/20 11:00:31;;;;;;;2.00;1.83;;;25.90;67.60;;;;;;5044145;28;20485;-89
2021/10/20 11:03:41;;;;;;;3.45;2.15;;;25.30;67.40;;;;;;5043595;28;20126;-89
2021/10/20 11:06:08;;;;;;;2.25;1.73;;;24.20;69.50;;;;;;5040921;28;20446;-95
2021/10/20 11:08:35;;;;;;;3.80;1.95;;;23.40;73.50;;;;;;5039291;28;20084;-91
2021/10/20 11:11:06;;;;;;;5.35;1.80;;;23.30;72.80;;;;;;5059885;28;20045;-94
2021/10/20 11:13:37;;;;;;;4.88;2.15;;;23.20;73.40;;;;;;5040458;28;20044;-89
2021/10/20 11:16:08;;;;;;;2.95;1.95;;;23.10;74.70;;;;;;5039793;28;20554;-95
2021/10/20 11:18:49;;;;;;;1.75;1.65;;;23.10;75.20;;;;;;5051898;28;20035;-92
2021/10/20 11:21:19;;;;;;;2.08;1.98;;;23.90;73.30;;;;;;5055666;28;20413;-95
2021/10/20 11:23:49;;;;;;;1.70;1.60;;;23.70;75.10;;;;;;5044675;28;20383;-91
2021/10/20 11:26:16;;;;;;;1.77;1.67;;;24.30;72.80;;;;;;5044368;28;20061;-93
2021/10/20 11:28:47;;;;;;;4.40;2.15;;;24.00;73.40;;;;;;5045239;28;20119;-92
2021/10/20 11:31:14;;;;;;;4.05;2.00;;;23.60;72.60;;;;;;5040161;28;20041;-95
2021/10/20 11:33:43;;;;;;;6.28;2.20;;;22.70;75.80;;;;;;5040584;28;20049;-91
2021/10/20 11:36:20;;;;;;;3.05;2.00;;;22.10;77.90;;;;;;5043540;28;20135;-95
2021/10/20 11:38:47;;;;;;;4.00;1.73;;;21.70;79.70;;;;;;5043654;28;20064;-93
2021/10/20 11:41:18;;;;;;;2.33;1.90;;;21.20;80.10;;;;;;5039497;28;20386;-94
2021/10/20 11:43:53;;;;;;;4.25;2.03;;;20.80;82.60;;;;;;5040584;28;20485;-92
2021/10/20 11:46:23;;;;;;;3.10;1.98;;;20.40;84.10;;;;;;5061698;28;20059;-92
2021/10/20 11:48:52;;;;;;;3.25;2.42;;;19.90;87.00;;;;;;5044448;28;20061;-91
2021/10/20 11:51:24;;;;;;;5.00;2.42;;;19.60;89.00;;;;;;5044556;28;20116;-93
2021/10/20 11:53:51;;;;;;;2.38;2.28;;;19.50;89.90;;;;;;5043273;28;20108;-92
2021/10/20 11:56:22;;;;;;;7.63;2.25;;;19.20;90.40;;;;;;5044578;28;20044;-94
2021/10/20 11:58:52;;;;;;;6.35;2.50;;;19.20;91.00;;;;;;5046766;28;20075;-96
2021/10/20 12:01:19;;;;;;;2.38;2.10;;;19.20;91.00;;;;;;5042684;28;20060;-94
2021/10/20 12:03:47;;;;;;;4.28;2.00;;;19.00;91.70;;;;;;5043647;28;20052;-94
2021/10/20 12:06:18;;;;;;;5.22;2.30;;;18.90;92.10;;;;;;5099633;22;20074;-96
2021/10/20 12:08:48;;;;;;;2.45;2.00;;;18.90;93.30;;;;;;5063364;28;20051;-96
2021/10/20 12:11:31;;;;;;;4.10;2.40;;;18.90;93.40;;;;;;5064415;28;20714;-93
2021/10/20 12:14:09;;;;;;;4.70;2.20;;;18.90;94.10;;;;;;5062338;28;20129;-93
2021/10/20 12:16:48;;;;;;;3.17;2.25;;;18.80;95.10;;;;;;5066603;28;20208;-96
2021/10/20 12:19:21;;;;;;;5.65;2.50;;;18.80;95.80;;;;;;5048701;28;20135;-91
2021/10/20 12:21:48;;;;;;;3.63;2.10;;;18.90;96.50;;;;;;5062689;28;20079;-93
2021/10/20 12:24:18;;;;;;;3.40;2.05;;;18.90;96.60;;;;;;5064016;28;20075;-95
2021/10/20 12:26:47;;;;;;;3.20;2.00;;;18.70;97.00;;;;;;5063158;28;20052;-95
2021/10/20 12:29:17;;;;;;;3.40;2.13;;;18.60;98.90;;;;;;5063389;28;20072;-88
2021/10/20 12:31:47;;;;;;;2.65;2.15;;;18.60;99.50;;;;;;5067822;28;20048;-94
2021/10/20 12:34:14;;;;;;;2.47;2.28;;;18.50;99.90;;;;;;5065345;28;20102;-91
2021/10/20 12:36:43;;;;;;;4.35;2.15;;;18.60;99.90;;;;;;5081229;28;20047;-91
2021/10/20 12:39:17;;;;;;;2.13;2.00;;;18.90;99.90;;;;;;5095573;28;20076;-93
2021/10/20 12:41:48;;;;;;;5.50;2.38;;;19.30;99.90;;;;;;5063353;28;20135;-93
2021/10/20 12:44:17;;;;;;;2.38;2.15;;;19.60;99.50;;;;;;5083656;28;20508;-93
2021/10/20 12:46:43;;;;;;;6.78;2.00;;;19.80;99.10;;;;;;5064153;28;20062;-93
2021/10/20 12:49:13;;;;;;;4.80;2.03;;;19.60;98.80;;;;;;5062143;28;20523;-94
2021/10/20 12:51:42;;;;;;;2.35;2.10;;;19.40;99.60;;;;;;5064716;28;20140;-90
2021/10/20 12:54:31;;;;;;;2.17;1.90;;;19.60;99.50;;;;;;5069058;28;20485;-88
2021/10/20 12:56:58;;;;;;;4.10;2.00;;;19.80;99.20;;;;;;5068286;28;20549;-91
2021/10/20 12:59:30;;;;;;;8.88;2.58;;;20.00;98.60;;;;;;5065798;28;20048;-92
2021/10/20 13:01:57;;;;;;;2.80;2.20;;;20.00;99.00;;;;;;5078595;28;20090;-92
2021/10/20 13:04:25;;;;;;;2.25;2.15;;;19.90;99.00;;;;;;5069604;28;20515;-86